sensor_id;sensor_type;location;lat;lon;timestamp;temperature;humidity
65040;HTU21D;51606;45.000;38.612;2023-01-28T04:55:03;-1.45;77.83
65040;HTU21D;51606;45.000;38.612;2023-01-28T04:57:30;-1.43;77.83
65040;HTU21D;51606;45.000;38.612;2023-01-28T04:59:57;-1.41;77.83
65040;HTU21D;51606;45.000;38.612;2023-01-28T05:02:24;-1.40;77.82
65040;HTU21D;51606;45.000;38.612;2023-01-28T05:04:51;-1.39;77.82
65040;HTU21D;51606;45.000;38.612;2023-01-28T05:07:35;-1.38;77.79
65040;HTU21D;51606;45.000;38.612;2023-01-28T05:10:03;-1.34;77.77
65040;HTU21D;51606;45.000;38.612;2023-01-28T05:12:30;-1.34;77.76
65040;HTU21D;51606;45.000;38.612;2023-01-28T05:15:05;-1.34;77.76
65040;HTU21D;51606;45.000;38.612;2023-01-28T05:17:32;-1.33;77.79
65040;HTU21D;51606;45.000;38.612;2023-01-28T05:19:59;-1.30;77.79
65040;HTU21D;51606;45.000;38.612;2023-01-28T05:22:27;-1.28;77.78
65040;HTU21D;51606;45.000;38.612;2023-01-28T05:25:12;-1.24;77.76
65040;HTU21D;51606;45.000;38.612;2023-01-28T05:27:39;-1.21;77.72
65040;HTU21D;51606;45.000;38.612;2023-01-28T05:30:06;-1.18;77.69
65040;HTU21D;51606;45.000;38.612;2023-01-28T05:32:33;-1.14;77.66
65040;HTU21D;51606;45.000;38.612;2023-01-28T05:34:59;-1.11;77.66
65040;HTU21D;51606;45.000;38.612;2023-01-28T05:37:25;-1.08;77.65
65040;HTU21D;51606;45.000;38.612;2023-01-28T05:39:54;-1.03;77.61
65040;HTU21D;51606;45.000;38.612;2023-01-28T05:42:23;-0.96;77.58
65040;HTU21D;51606;45.000;38.612;2023-01-28T05:44:54;-0.85;77.55
65040;HTU21D;51606;45.000;38.612;2023-01-28T05:47:55;-0.70;77.41
65040;HTU21D;51606;45.000;38.612;2023-01-28T05:50:48;-0.50;77.14
65040;HTU21D;51606;45.000;38.612;2023-01-28T05:53:18;-0.24;76.94
65040;HTU21D;51606;45.000;38.612;2023-01-28T05:55:49;0.04;76.75
65040;HTU21D;51606;45.000;38.612;2023-01-28T05:58:17;0.32;76.60
65040;HTU21D;51606;45.000;38.612;2023-01-28T06:00:44;0.49;76.58
65040;HTU21D;51606;45.000;38.612;2023-01-28T06:03:11;0.66;76.67
65040;HTU21D;51606;45.000;38.612;2023-01-28T06:05:38;0.79;76.76
65040;HTU21D;51606;45.000;38.612;2023-01-28T06:08:06;0.91;76.85
65040;HTU21D;51606;45.000;38.612;2023-01-28T06:10:32;1.01;77.00
65040;HTU21D;51606;45.000;38.612;2023-01-28T06:12:59;1.14;77.16
65040;HTU21D;51606;45.000;38.612;2023-01-28T06:15:28;1.21;77.22
65040;HTU21D;51606;45.000;38.612;2023-01-28T06:18:04;1.21;77.21
65040;HTU21D;51606;45.000;38.612;2023-01-28T06:20:32;1.18;77.28
65040;HTU21D;51606;45.000;38.612;2023-01-28T06:23:00;1.11;77.40
65040;HTU21D;51606;45.000;38.612;2023-01-28T06:25:26;1.06;77.44
65040;HTU21D;51606;45.000;38.612;2023-01-28T06:27:53;1.02;77.50
65040;HTU21D;51606;45.000;38.612;2023-01-28T06:30:19;1.03;77.48
65040;HTU21D;51606;45.000;38.612;2023-01-28T06:32:46;1.03;77.48
65040;HTU21D;51606;45.000;38.612;2023-01-28T06:35:12;1.05;77.41
65040;HTU21D;51606;45.000;38.612;2023-01-28T06:37:58;1.09;77.38
65040;HTU21D;51606;45.000;38.612;2023-01-28T06:40:25;1.17;77.40
65040;HTU21D;51606;45.000;38.612;2023-01-28T06:42:51;1.34;77.22
65040;HTU21D;51606;45.000;38.612;2023-01-28T06:45:17;1.49;77.01
65040;HTU21D;51606;45.000;38.612;2023-01-28T06:47:43;1.68;76.86
65040;HTU21D;51606;45.000;38.612;2023-01-28T06:50:10;1.94;76.53
65040;HTU21D;51606;45.000;38.612;2023-01-28T06:52:36;2.00;76.30
65040;HTU21D;51606;45.000;38.612;2023-01-28T06:55:03;1.97;76.32
65040;HTU21D;51606;45.000;38.612;2023-01-28T06:57:30;1.93;76.41
65040;HTU21D;51606;45.000;38.612;2023-01-28T06:59:56;1.84;76.57
65040;HTU21D;51606;45.000;38.612;2023-01-28T07:02:22;1.75;76.63
65040;HTU21D;51606;45.000;38.612;2023-01-28T07:04:49;1.68;76.76
65040;HTU21D;51606;45.000;38.612;2023-01-28T07:07:15;1.63;76.82
65040;HTU21D;51606;45.000;38.612;2023-01-28T07:09:41;1.56;76.79
65040;HTU21D;51606;45.000;38.612;2023-01-28T07:12:07;1.49;76.81
65040;HTU21D;51606;45.000;38.612;2023-01-28T07:14:34;1.45;76.74
65040;HTU21D;51606;45.000;38.612;2023-01-28T07:17:00;1.42;76.77
65040;HTU21D;51606;45.000;38.612;2023-01-28T07:19:26;1.39;76.66
65040;HTU21D;51606;45.000;38.612;2023-01-28T07:21:52;1.35;76.60
65040;HTU21D;51606;45.000;38.612;2023-01-28T07:24:22;1.34;76.60
65040;HTU21D;51606;45.000;38.612;2023-01-28T07:26:48;1.35;76.55
65040;HTU21D;51606;45.000;38.612;2023-01-28T07:29:15;1.37;76.50
65040;HTU21D;51606;45.000;38.612;2023-01-28T07:31:41;1.39;76.39
65040;HTU21D;51606;45.000;38.612;2023-01-28T07:34:08;1.43;76.34
65040;HTU21D;51606;45.000;38.612;2023-01-28T07:36:34;1.47;76.30
65040;HTU21D;51606;45.000;38.612;2023-01-28T07:39:01;1.51;76.19
65040;HTU21D;51606;45.000;38.612;2023-01-28T07:41:27;1.57;76.06
65040;HTU21D;51606;45.000;38.612;2023-01-28T07:43:59;1.61;75.99
65040;HTU21D;51606;45.000;38.612;2023-01-28T07:46:25;1.65;75.92
65040;HTU21D;51606;45.000;38.612;2023-01-28T07:48:51;1.67;75.80
65040;HTU21D;51606;45.000;38.612;2023-01-28T07:51:18;1.71;75.80
65040;HTU21D;51606;45.000;38.612;2023-01-28T07:53:44;1.79;75.67
65040;HTU21D;51606;45.000;38.612;2023-01-28T07:56:10;1.87;75.74
65040;HTU21D;51606;45.000;38.612;2023-01-28T07:58:36;2.03;75.54
65040;HTU21D;51606;45.000;38.612;2023-01-28T08:01:04;2.20;75.47
65040;HTU21D;51606;45.000;38.612;2023-01-28T08:03:30;2.37;75.38
65040;HTU21D;51606;45.000;38.612;2023-01-28T08:05:57;2.47;75.16
65040;HTU21D;51606;45.000;38.612;2023-01-28T08:08:25;2.52;75.12
65040;HTU21D;51606;45.000;38.612;2023-01-28T08:10:54;2.60;75.26
65040;HTU21D;51606;45.000;38.612;2023-01-28T08:13:20;2.73;75.21
65040;HTU21D;51606;45.000;38.612;2023-01-28T08:15:47;2.78;75.02
65040;HTU21D;51606;45.000;38.612;2023-01-28T08:18:14;2.73;74.94
65040;HTU21D;51606;45.000;38.612;2023-01-28T08:20:42;2.70;75.02
65040;HTU21D;51606;45.000;38.612;2023-01-28T08:23:17;2.65;74.85
65040;HTU21D;51606;45.000;38.612;2023-01-28T08:25:45;2.60;74.91
65040;HTU21D;51606;45.000;38.612;2023-01-28T08:28:13;2.54;75.00
65040;HTU21D;51606;45.000;38.612;2023-01-28T08:30:40;2.50;75.04
65040;HTU21D;51606;45.000;38.612;2023-01-28T08:33:08;2.49;75.05
65040;HTU21D;51606;45.000;38.612;2023-01-28T08:35:35;2.50;74.86
65040;HTU21D;51606;45.000;38.612;2023-01-28T08:38:03;2.49;74.76
65040;HTU21D;51606;45.000;38.612;2023-01-28T08:40:30;2.49;74.82
65040;HTU21D;51606;45.000;38.612;2023-01-28T08:42:56;2.53;74.69
65040;HTU21D;51606;45.000;38.612;2023-01-28T08:45:24;2.56;74.55
65040;HTU21D;51606;45.000;38.612;2023-01-28T08:47:55;2.59;74.35
65040;HTU21D;51606;45.000;38.612;2023-01-28T08:50:24;2.61;74.35
65040;HTU21D;51606;45.000;38.612;2023-01-28T08:52:59;2.68;74.26
65040;HTU21D;51606;45.000;38.612;2023-01-28T08:55:26;2.74;74.14
65040;HTU21D;51606;45.000;38.612;2023-01-28T08:57:53;2.81;74.05
65040;HTU21D;51606;45.000;38.612;2023-01-28T09:00:33;2.84;73.82
65040;HTU21D;51606;45.000;38.612;2023-01-28T09:02:59;2.84;73.79
65040;HTU21D;51606;45.000;38.612;2023-01-28T09:05:26;2.82;73.55
65040;HTU21D;51606;45.000;38.612;2023-01-28T09:07:52;2.82;73.56
65040;HTU21D;51606;45.000;38.612;2023-01-28T09:10:18;2.79;73.57
65040;HTU21D;51606;45.000;38.612;2023-01-28T09:12:48;2.78;73.57
65040;HTU21D;51606;45.000;38.612;2023-01-28T09:15:14;2.75;73.48
65040;HTU21D;51606;45.000;38.612;2023-01-28T09:17:40;2.78;73.58
65040;HTU21D;51606;45.000;38.612;2023-01-28T09:20:07;2.76;73.44
65040;HTU21D;51606;45.000;38.612;2023-01-28T09:22:34;2.75;73.44
65040;HTU21D;51606;45.000;38.612;2023-01-28T09:25:01;2.78;73.19
65040;HTU21D;51606;45.000;38.612;2023-01-28T09:27:27;2.80;73.19
65040;HTU21D;51606;45.000;38.612;2023-01-28T09:29:53;2.81;73.06
65040;HTU21D;51606;45.000;38.612;2023-01-28T09:32:19;2.82;73.06
65040;HTU21D;51606;45.000;38.612;2023-01-28T09:34:46;2.86;73.09
65040;HTU21D;51606;45.000;38.612;2023-01-28T09:37:12;2.89;73.06
65040;HTU21D;51606;45.000;38.612;2023-01-28T09:39:39;2.93;72.77
65040;HTU21D;51606;45.000;38.612;2023-01-28T09:45:08;2.93;72.84
65040;HTU21D;51606;45.000;38.612;2023-01-28T09:47:47;2.94;72.92
65040;HTU21D;51606;45.000;38.612;2023-01-28T09:50:22;2.96;72.83
65040;HTU21D;51606;45.000;38.612;2023-01-28T09:52:54;2.96;72.86
65040;HTU21D;51606;45.000;38.612;2023-01-28T09:55:30;2.94;72.83
65040;HTU21D;51606;45.000;38.612;2023-01-28T09:57:58;2.97;72.87
65040;HTU21D;51606;45.000;38.612;2023-01-28T10:00:37;3.02;72.91
65040;HTU21D;51606;45.000;38.612;2023-01-28T10:12:00;3.13;72.87
65040;HTU21D;51606;45.000;38.612;2023-01-28T10:14:49;3.14;72.88
65040;HTU21D;51606;45.000;38.612;2023-01-28T10:17:33;3.13;72.92
65040;HTU21D;51606;45.000;38.612;2023-01-28T10:20:04;3.08;72.96
65040;HTU21D;51606;45.000;38.612;2023-01-28T10:22:36;3.04;73.00
65040;HTU21D;51606;45.000;38.612;2023-01-28T10:25:18;2.97;73.12
65040;HTU21D;51606;45.000;38.612;2023-01-28T10:27:47;2.93;73.21
65040;HTU21D;51606;45.000;38.612;2023-01-28T10:30:23;2.86;73.27
65040;HTU21D;51606;45.000;38.612;2023-01-28T10:33:09;2.79;73.32
65040;HTU21D;51606;45.000;38.612;2023-01-28T10:35:40;2.73;73.37
65040;HTU21D;51606;45.000;38.612;2023-01-28T10:38:11;2.71;73.44
65040;HTU21D;51606;45.000;38.612;2023-01-28T10:40:41;2.71;73.37
65040;HTU21D;51606;45.000;38.612;2023-01-28T10:43:07;2.70;73.30
65040;HTU21D;51606;45.000;38.612;2023-01-28T10:45:39;2.71;73.14
65040;HTU21D;51606;45.000;38.612;2023-01-28T10:48:15;2.69;73.20
65040;HTU21D;51606;45.000;38.612;2023-01-28T10:50:58;2.66;73.28
65040;HTU21D;51606;45.000;38.612;2023-01-28T10:53:37;2.64;73.28
65040;HTU21D;51606;45.000;38.612;2023-01-28T11:08:02;0.00;73.73
65040;HTU21D;51606;45.000;38.612;2023-01-28T11:10:32;2.36;73.82
65040;HTU21D;51606;45.000;38.612;2023-01-28T11:13:01;2.35;73.96
65040;HTU21D;51606;45.000;38.612;2023-01-28T11:15:28;2.31;74.02
65040;HTU21D;51606;45.000;38.612;2023-01-28T11:18:00;2.28;74.00
65040;HTU21D;51606;45.000;38.612;2023-01-28T11:20:29;2.25;74.26
65040;HTU21D;51606;45.000;38.612;2023-01-28T11:22:57;2.17;74.35
65040;HTU21D;51606;45.000;38.612;2023-01-28T11:25:30;2.08;74.52
65040;HTU21D;51606;45.000;38.612;2023-01-28T11:28:00;2.01;74.73
65040;HTU21D;51606;45.000;38.612;2023-01-28T11:30:32;1.94;75.07
65040;HTU21D;51606;45.000;38.612;2023-01-28T11:33:33;1.87;75.28
65040;HTU21D;51606;45.000;38.612;2023-01-28T11:36:22;1.86;75.35
65040;HTU21D;51606;45.000;38.612;2023-01-28T11:38:54;1.82;75.35
65040;HTU21D;51606;45.000;38.612;2023-01-28T11:41:27;1.83;75.41
65040;HTU21D;51606;45.000;38.612;2023-01-28T11:43:55;1.81;75.60
65040;HTU21D;51606;45.000;38.612;2023-01-28T11:46:30;1.80;75.64
65040;HTU21D;51606;45.000;38.612;2023-01-28T11:51:53;1.81;75.72
65040;HTU21D;51606;45.000;38.612;2023-01-28T11:54:34;1.82;76.04
65040;HTU21D;51606;45.000;38.612;2023-01-28T11:57:24;1.84;76.17
65040;HTU21D;51606;45.000;38.612;2023-01-28T12:00:08;1.87;76.08
65040;HTU21D;51606;45.000;38.612;2023-01-28T12:05:32;2.00;76.25
65040;HTU21D;51606;45.000;38.612;2023-01-28T12:16:33;2.43;75.80
65040;HTU21D;51606;45.000;38.612;2023-01-28T12:19:39;2.52;75.75
65040;HTU21D;51606;45.000;38.612;2023-01-28T12:24:49;2.62;75.79
65040;HTU21D;51606;45.000;38.612;2023-01-28T12:30:00;2.75;75.87
65040;HTU21D;51606;45.000;38.612;2023-01-28T12:35:30;2.89;75.86
65040;HTU21D;51606;45.000;38.612;2023-01-28T12:38:22;2.96;75.86
65040;HTU21D;51606;45.000;38.612;2023-01-28T12:41:14;3.01;75.80
65040;HTU21D;51606;45.000;38.612;2023-01-28T12:46:31;3.11;75.64
65040;HTU21D;51606;45.000;38.612;2023-01-28T12:49:20;3.16;75.63
65040;HTU21D;51606;45.000;38.612;2023-01-28T12:51:56;3.18;75.65
65040;HTU21D;51606;45.000;38.612;2023-01-28T12:54:34;3.23;75.59
65040;HTU21D;51606;45.000;38.612;2023-01-28T12:57:03;3.26;75.60
65040;HTU21D;51606;45.000;38.612;2023-01-28T12:59:46;3.29;75.60
65040;HTU21D;51606;45.000;38.612;2023-01-28T13:02:22;3.31;75.59
65040;HTU21D;51606;45.000;38.612;2023-01-28T13:05:04;3.31;75.64
65040;HTU21D;51606;45.000;38.612;2023-01-28T13:10:26;3.31;75.85
65040;HTU21D;51606;45.000;38.612;2023-01-28T13:12:54;3.29;75.88
65040;HTU21D;51606;45.000;38.612;2023-01-28T13:15:22;3.28;75.89
65040;HTU21D;51606;45.000;38.612;2023-01-28T13:18:04;3.26;76.02
65040;HTU21D;51606;45.000;38.612;2023-01-28T13:23:24;3.20;76.02
65040;HTU21D;51606;45.000;38.612;2023-01-28T13:25:53;3.19;76.07
65040;HTU21D;51606;45.000;38.612;2023-01-28T13:28:30;3.18;76.20
65040;HTU21D;51606;45.000;38.612;2023-01-28T13:33:36;3.18;76.25
65040;HTU21D;51606;45.000;38.612;2023-01-28T13:38:45;3.20;76.31
65040;HTU21D;51606;45.000;38.612;2023-01-28T13:41:12;3.21;76.36
65040;HTU21D;51606;45.000;38.612;2023-01-28T13:43:40;3.23;76.31
65040;HTU21D;51606;45.000;38.612;2023-01-28T13:46:27;3.21;76.35
65040;HTU21D;51606;45.000;38.612;2023-01-28T13:48:55;3.21;76.37
